METAR ET TAF INFORMATION
METAR FOR GMAD
ADDS - METARS form results

(0516 UTC 27 June 2022)
Data provider http://aviationweather.gov/metar/data/
 
METAR text: GMAD 270500Z 00000KT CAVOK 16/13 Q1012 NOSIG
Conditions at: GMAD (AL MASSIRA MC , MA) observed 0500 UTC 27 June 2022
Temperature: 16.0°C (61°F)
Dewpoint: 13.0°C (55°F) [RH = 82%]
Pressure (altimeter): 29.88 inches Hg (1012.0 mb)
Winds: calm
Visibility: 6 or more miles (10+ km)
Ceiling: ceiling and visibility are OK
Clouds: unknown
Weather: no significant weather observed at this time

METAR text: GMAD 270430Z 00000KT CAVOK 17/13 Q1012 NOSIG
Conditions at: GMAD (AL MASSIRA MC , MA) observed 0430 UTC 27 June 2022
Temperature: 17.0°C (63°F)
Dewpoint: 13.0°C (55°F) [RH = 77%]
Pressure (altimeter): 29.88 inches Hg (1012.0 mb)
Winds: calm
Visibility: 6 or more miles (10+ km)
Ceiling: ceiling and visibility are OK
Clouds: unknown
Weather: no significant weather observed at this time

Forecast for: GMAD (AL MASSIRA MC , MA)
Text: TAF GMAD 270500Z 2706/2812 22008KT CAVOK
Forecast period: 0600 UTC 27 June 2022 to 1200 UTC 28 June 2022
Forecast type: FROM: standard forecast or significant change
Winds: from the SW (220 degrees) at 9 MPH (8 knots; 4.1 m/s)
Visibility: 6 or more miles (10+ km)
Ceiling: unknown
Clouds: missing
Weather: NSW  (no significant weather)

 AÉROPORT DE AÉROPORT

 INFORMATIONS DE PISTE
Piste 10 Longueur de la piste 10499 ft Largeur de la piste 148 ft
Élévation de la piste 198 ft Seuil de la piste déplacés 0 ft Runway heading 92
Piste 28 Longueur de la piste 10499 ft Largeur de la piste 148 ft
Élévation de la piste 254 ft Seuil de la piste déplacés 0 ft Runway heading 272

 AÉROPORT FRÉQUENCES
Type APP Nom AGADIR APP Féquence 120.9 MHZ
Type TWR Nom AGADIR TWR Féquence 119.5 MHZ

 SIDA DE NAVIGATION
Type VOR-DME Nom Agadir Féquence 117200 KHZ
Type NDB Nom Agadir Féquence 396 KHZ
Type NDB Nom Agadir Féquence 402 KHZ